Airfield :
LOGIN :

Register | Disclaimer

   EN    FR    IT 

 










Legend :    VFR   Marginal VFR   IFR   Intensive IFR   Very Intensive IFR
Visi :
Ceiling :
>= 8 km
>= 3000ft
5 to 8 km
1000 to 3000 ft
1500m to 5 km
500 to 1000 ft
800 to 1500m
200 to 500 ft
< 800m
< 200 ft
Symbols :   Thunderstorms  Fog  Heavy snow  Heavy precipitations  Wind > 20 kt
SIGMETs :     Misc.  Thunderstorms  Icing  Turbulence  Mountain Waves  Volcanic Ashes






- Airport Elevation : 821 ft
- IATA code : LYS


LFLL - Lyon St Exupéry / Satolas

CURRENT METAR :
  • 150630Z 05005KT 360V080 3600 +TSRA SCT006 FEW030CB BKN040 13/13 Q1010 TEMPO +TSRA

EXPIRED METARs :
  • 150600Z 03009KT 4700 +TSRA SCT006 FEW030CB BKN040 13/13 Q1008 TEMPO +TSRA
  • 150530Z 01008KT 4700 +TSRA SCT006 FEW030CB BKN040 13/13 Q1009 TEMPO +TSRA
  • 150500Z 04005KT 360V100 2600 +RA SCT006 FEW030CB BKN030 14/13 Q1010 TEMPO +TSRA
  • 150430Z 34010KT 310V010 2600 +RA FEW013 FEW050CB BKN050 15/13 Q1008 NOSIG
  • 150400Z 30010KT CAVOK 17/15 Q1008 NOSIG

TAF TAF LFLL
Valid from the 15 at 06:00 until the 16 at 12:00 UTC


150500Z 1506/1612 VRB05KT 4000 RA FEW012 OVC030
TEMPO 1506/1508 1500 +TSRA BKN009 BKN030CB
BECMG 1508/1510 9999 NSW BKN025
BECMG 1510/1512 FEW035TCU SCT040
TEMPO 1512/1517 4000 SHRA BKN035TCU
PROB30
TEMPO 1512/1517 2000 TSRA BKN035CB
FM151800 15004KT CAVOK
TEMPO 1603/1608 0400 FG



MET'MAP, your aeronautical weather chart ! - Copyright ORBIFLY December 2007 - Disclaimer

ORBIFLY MET'MAP TEAM :

Programming & Development : Alexandra Zaïnal
Concept & Development : Baudouin d'Aumeries
Co-Development & Prog : Marc-Olivier Méhu
Technical & hardware support : Manuel Goepfert

Contact : metmap@orbifly.com




SOURCES & CREDITS :

   NOAA